Impacts METAR Board INFO
IDs:

KLGA - New York/La Guardia, NY, US

Updated at: 1934 UTC 18 Jan 2018
Potential Impact None Slight Moderate High
Time18/07Z 18/08Z 18/09Z 18/10Z 18/11Z 18/12Z 18/13Z 18/14Z 18/15Z 18/16Z 18/17Z 18/18Z 18/19Z
VIS10 10 10 10 10 10 10 10 10 10 10 10 10
CIG-- -- -- -- -- -- -- -- -- -- -- -- --
CoverCLRCLRCLRCLRCLRCLRSCTSCTFEWFEWFEWFEWFEW
FltCatVFRVFRVFRVFRVFRVFRVFRVFRVFRVFRVFRVFRVFR
WX--------------------------
WDir32031033032010310300310300310320300320
WSpd12 15 11 14 7 13 13 15 8 9 15 14 11
WGst-- -- 18 -- -- -- -- -- -- -- -- -- --
Raw hourly METARs
KLGA 180651Z 32012KT 10SM CLR M06/M12 A3013 RMK AO2 SLP201 T10561117
KLGA 180751Z 31015KT 10SM CLR M06/M12 A3012 RMK AO2 SLP197 T10561122
KLGA 180851Z 33011G18KT 10SM CLR M06/M12 A3007 RMK AO2 PRESFR SLP180 T10611122 58024
KLGA 180951Z 32014KT 10SM CLR M06/M12 A3004 RMK AO2 SLP173 T10611122
KLGA 181051Z 01007KT 10SM CLR M06/M13 A3004 RMK AO2 SLP170 T10611128
KLGA 181151Z 31013KT 10SM CLR M06/M13 A3008 RMK AO2 SLP184 70012 T10561128 11050 21067 53003
KLGA 181251Z 30013KT 10SM FEW030 SCT250 M06/M13 A3007 RMK AO2 SLP181 T10561128
KLGA 181351Z 31015KT 10SM FEW030 SCT250 M05/M12 A3003 RMK AO2 SLP169 T10501122
KLGA 181451Z 30008KT 10SM FEW250 M04/M13 A3006 RMK AO2 SLP180 T10391133 55004
KLGA 181551Z 31009KT 10SM FEW250 M02/M13 A3004 RMK AO2 SLP173 T10221133
KLGA 181651Z 32015KT 10SM FEW250 M01/M13 A2998 RMK AO2 SLP152 T10111133
KLGA 181751Z 30014KT 10SM FEW250 M01/M12 A2995 RMK AO2 SLP141 T10061117 11006 21061 58039
KLGA 181851Z 32011KT 10SM FEW250 00/M12 A2993 RMK AO2 SLP135 T00001122